createdAt,value
2023-04-19T00:00:00.149Z,11.00
2023-04-19T00:02:29.242Z,10.90
2023-04-19T00:04:56.528Z,10.80
2023-04-19T00:07:23.724Z,10.80
2023-04-19T00:09:50.903Z,11.00
2023-04-19T00:12:18.081Z,10.90
2023-04-19T00:14:45.500Z,10.80
2023-04-19T00:17:12.616Z,10.80
2023-04-19T00:19:39.783Z,10.90
2023-04-19T00:22:06.990Z,10.80
2023-04-19T00:24:34.405Z,10.80
2023-04-19T00:27:02.438Z,10.80
2023-04-19T00:29:29.590Z,10.80
2023-04-19T00:31:56.783Z,10.80
2023-04-19T00:34:23.891Z,10.70
2023-04-19T00:36:50.934Z,10.70
2023-04-19T00:39:18.046Z,10.80
2023-04-19T00:41:45.133Z,10.60
2023-04-19T00:44:12.276Z,10.90
2023-04-19T00:46:40.444Z,10.80
2023-04-19T00:49:07.983Z,10.70
2023-04-19T00:51:35.245Z,10.70
2023-04-19T00:54:04.258Z,10.60
2023-04-19T00:56:33.467Z,10.60
2023-04-19T00:59:00.929Z,10.80
2023-04-19T01:01:28.952Z,10.60
2023-04-19T01:03:56.440Z,10.50
2023-04-19T01:06:23.678Z,10.40
2023-04-19T01:08:50.756Z,10.50
2023-04-19T01:11:17.900Z,10.40
2023-04-19T01:13:44.978Z,10.40
2023-04-19T01:16:12.201Z,10.40
2023-04-19T01:18:40.795Z,10.40
2023-04-19T01:21:09.180Z,10.30
2023-04-19T01:23:39.115Z,10.30
2023-04-19T01:26:06.706Z,10.40
2023-04-19T01:28:34.064Z,10.40
2023-04-19T01:31:01.267Z,10.30
2023-04-19T01:33:28.427Z,10.20
2023-04-19T01:35:55.526Z,10.10
2023-04-19T01:38:22.662Z,10.20
2023-04-19T01:40:49.845Z,10.20
2023-04-19T01:43:18.884Z,10.20
2023-04-19T01:45:46.273Z,10.10
2023-04-19T01:48:13.461Z,10.00
2023-04-19T01:50:40.662Z,10.10
2023-04-19T01:53:07.871Z,10.00
2023-04-19T01:55:35.090Z,10.20
2023-04-19T01:58:02.212Z,10.00
2023-04-19T02:00:29.519Z,10.20
2023-04-19T02:02:57.043Z,10.00
2023-04-19T02:05:24.226Z,10.00
2023-04-19T02:07:52.561Z,10.00
2023-04-19T02:10:19.681Z,9.90
2023-04-19T02:12:47.871Z,9.80
2023-04-19T02:15:15.533Z,9.90
2023-04-19T02:17:43.568Z,9.90
2023-04-19T02:20:11.099Z,9.90
2023-04-19T02:22:38.245Z,9.80
2023-04-19T02:25:05.751Z,9.80
2023-04-19T02:27:32.845Z,9.90
2023-04-19T02:30:00.420Z,9.70
2023-04-19T02:32:27.717Z,9.70
2023-04-19T02:34:54.797Z,9.70
2023-04-19T02:37:21.840Z,9.60
2023-04-19T02:39:52.044Z,9.70
2023-04-19T02:42:19.159Z,10.10
2023-04-19T02:44:46.200Z,9.80
2023-04-19T02:47:13.297Z,9.60
2023-04-19T02:49:41.636Z,9.70
2023-04-19T02:52:09.137Z,9.60
2023-04-19T02:54:36.347Z,9.50
2023-04-19T02:57:03.430Z,9.50
2023-04-19T02:59:30.707Z,9.50
2023-04-19T03:01:57.817Z,9.60
2023-04-19T03:04:24.981Z,9.60
2023-04-19T03:06:52.840Z,9.90
2023-04-19T03:09:22.848Z,9.80
2023-04-19T03:11:49.914Z,9.70
2023-04-19T03:14:17.240Z,9.60
2023-04-19T03:16:44.552Z,9.70
2023-04-19T03:19:11.599Z,9.80
2023-04-19T03:21:38.727Z,10.00
2023-04-19T03:24:06.156Z,9.90
2023-04-19T03:26:33.189Z,10.00
2023-04-19T03:29:01.564Z,9.90
2023-04-19T03:31:28.668Z,9.80
2023-04-19T03:33:55.849Z,9.90
2023-04-19T03:36:23.001Z,10.00
2023-04-19T03:38:50.037Z,10.10
2023-04-19T03:41:21.515Z,10.20
2023-04-19T03:43:48.608Z,10.10
2023-04-19T03:46:15.768Z,10.00
2023-04-19T03:48:42.982Z,9.90
2023-04-19T03:51:10.085Z,9.90
2023-04-19T03:53:37.700Z,10.10
2023-04-19T03:56:05.228Z,10.20
2023-04-19T03:58:32.321Z,10.00
2023-04-19T04:01:00.282Z,10.00
2023-04-19T04:03:27.975Z,10.00
2023-04-19T04:05:55.350Z,10.10
2023-04-19T04:08:22.486Z,10.10
2023-04-19T04:10:49.577Z,10.20
2023-04-19T04:13:16.634Z,9.90
2023-04-19T04:15:43.801Z,10.10
2023-04-19T04:18:11.044Z,10.10
2023-04-19T04:20:38.215Z,10.20
2023-04-19T04:23:05.462Z,10.40
2023-04-19T04:25:33.193Z,10.30
2023-04-19T04:28:00.304Z,10.20
2023-04-19T04:30:28.833Z,10.30
2023-04-19T04:32:58.261Z,10.40
2023-04-19T04:35:26.241Z,10.50
2023-04-19T04:37:56.721Z,10.60
2023-04-19T04:40:23.931Z,10.70
2023-04-19T04:42:53.106Z,10.90
2023-04-19T04:45:20.375Z,10.90
2023-04-19T04:47:47.504Z,11.10
2023-04-19T04:50:14.803Z,11.20
2023-04-19T04:52:42.095Z,11.40
2023-04-19T04:55:09.723Z,11.60
2023-04-19T04:57:36.806Z,11.60
2023-04-19T05:00:06.194Z,11.90
2023-04-19T05:02:33.894Z,11.90
2023-04-19T05:05:01.148Z,12.20
2023-04-19T05:07:28.336Z,12.20
2023-04-19T05:09:55.582Z,12.50
2023-04-19T05:12:22.747Z,12.70
2023-04-19T05:14:49.949Z,12.60
2023-04-19T05:17:17.113Z,12.80
2023-04-19T05:19:44.244Z,12.50
2023-04-19T05:22:11.482Z,12.50
2023-04-19T05:24:39.689Z,12.70
2023-04-19T05:27:07.635Z,12.90
2023-04-19T05:29:34.887Z,12.90
2023-04-19T05:32:02.006Z,13.20
2023-04-19T05:34:29.271Z,13.60
2023-04-19T05:36:56.451Z,13.90
2023-04-19T05:39:23.563Z,13.50
2023-04-19T05:41:50.937Z,13.70
2023-04-19T05:44:18.222Z,14.00
2023-04-19T05:46:45.385Z,13.80
2023-04-19T05:49:12.499Z,13.40
2023-04-19T05:51:39.772Z,13.60
2023-04-19T05:54:06.940Z,13.40
2023-04-19T05:56:33.998Z,13.70
2023-04-19T05:59:01.324Z,13.60
2023-04-19T06:01:28.699Z,13.60
2023-04-19T06:03:56.073Z,13.50
2023-04-19T06:06:24.128Z,13.60
2023-04-19T06:08:53.976Z,13.70
2023-04-19T06:11:31.553Z,14.10
2023-04-19T06:14:02.160Z,13.70
2023-04-19T06:16:29.382Z,13.80
2023-04-19T06:18:57.097Z,13.90
2023-04-19T06:21:24.245Z,14.40
2023-04-19T06:23:51.350Z,14.50
2023-04-19T06:26:18.442Z,15.10
2023-04-19T06:28:45.694Z,14.70
2023-04-19T06:31:12.840Z,14.30
2023-04-19T06:33:40.036Z,14.30
2023-04-19T06:36:07.403Z,14.50
2023-04-19T06:38:34.461Z,14.80
2023-04-19T06:41:01.661Z,14.60
2023-04-19T06:43:28.800Z,15.00
2023-04-19T06:45:59.887Z,15.20
2023-04-19T06:48:27.965Z,15.30
2023-04-19T06:50:55.402Z,15.20
2023-04-19T06:53:22.914Z,15.10
2023-04-19T06:55:53.694Z,15.50
2023-04-19T06:58:20.986Z,15.70
2023-04-19T07:00:48.007Z,16.10
2023-04-19T07:03:15.311Z,15.80
2023-04-19T07:05:42.519Z,15.90
2023-04-19T07:08:09.580Z,16.00
2023-04-19T07:10:36.632Z,16.10
2023-04-19T07:13:03.942Z,15.80
2023-04-19T07:15:31.050Z,16.10
2023-04-19T07:17:58.279Z,16.20
2023-04-19T07:20:25.493Z,16.30
2023-04-19T07:22:52.715Z,16.10
2023-04-19T07:25:19.795Z,16.60
2023-04-19T07:27:47.471Z,16.60
2023-04-19T07:30:14.703Z,17.20
2023-04-19T07:32:42.160Z,17.30
2023-04-19T07:35:09.662Z,17.60
2023-04-19T07:37:36.713Z,17.20
2023-04-19T07:40:05.352Z,16.80
2023-04-19T07:42:32.692Z,17.30
2023-04-19T07:45:00.267Z,18.00
2023-04-19T07:47:27.539Z,19.10
2023-04-19T07:49:56.538Z,17.40
2023-04-19T07:52:23.653Z,16.80
2023-04-19T07:54:50.784Z,17.80
2023-04-19T07:57:18.165Z,17.90
2023-04-19T07:59:45.324Z,18.50
2023-04-19T08:02:12.498Z,18.50
2023-04-19T08:04:40.223Z,19.10
2023-04-19T08:07:09.530Z,19.70
2023-04-19T08:09:37.989Z,19.00
2023-04-19T08:12:05.445Z,19.20
2023-04-19T08:14:43.820Z,20.40
2023-04-19T08:17:26.743Z,19.70
2023-04-19T08:19:55.462Z,19.40
2023-04-19T08:22:22.840Z,20.30
2023-04-19T08:24:53.704Z,19.00
2023-04-19T08:27:21.770Z,19.90
2023-04-19T08:29:49.081Z,20.40
2023-04-19T08:32:16.413Z,21.20
2023-04-19T08:34:43.712Z,20.50
2023-04-19T08:37:10.953Z,20.10
2023-04-19T08:39:38.209Z,19.10
2023-04-19T08:42:17.720Z,20.00
2023-04-19T08:45:25.500Z,21.00
2023-04-19T08:47:59.751Z,21.10
2023-04-19T08:50:34.590Z,21.70
2023-04-19T08:55:50.989Z,21.20
2023-04-19T08:58:44.461Z,21.20
2023-04-19T09:01:32.969Z,23.10
2023-04-19T09:04:20.721Z,21.70
2023-04-19T09:06:49.187Z,21.20
2023-04-19T09:12:00.450Z,20.50
2023-04-19T09:14:28.777Z,20.90
2023-04-19T09:17:16.540Z,21.80
2023-04-19T09:19:48.888Z,20.90
2023-04-19T09:22:16.645Z,21.20
2023-04-19T09:27:34.893Z,21.40
2023-04-19T09:30:04.297Z,21.50
2023-04-19T09:32:48.160Z,22.90
2023-04-19T09:35:15.602Z,23.20
2023-04-19T09:40:25.456Z,21.80
2023-04-19T09:48:10.022Z,20.90
2023-04-19T09:50:59.001Z,20.00
2023-04-19T09:53:29.534Z,20.70
2023-04-19T09:56:01.900Z,21.60
2023-04-19T09:58:41.560Z,21.30
2023-04-19T10:01:17.874Z,21.00
2023-04-19T10:03:48.509Z,22.50
2023-04-19T10:08:49.946Z,22.20
2023-04-19T10:11:17.653Z,21.30
2023-04-19T10:13:47.102Z,21.20
2023-04-19T10:16:19.613Z,22.30
2023-04-19T10:18:50.300Z,22.00
2023-04-19T10:21:19.315Z,23.10
2023-04-19T10:23:47.352Z,23.40
2023-04-19T10:26:14.433Z,24.20
2023-04-19T10:28:42.718Z,23.30
2023-04-19T10:31:13.811Z,23.50
2023-04-19T10:33:41.885Z,23.30
2023-04-19T10:36:11.252Z,23.00
2023-04-19T10:38:49.700Z,23.20
2023-04-19T10:41:18.970Z,22.40
2023-04-19T10:43:55.493Z,23.80
2023-04-19T10:46:23.210Z,22.60
2023-04-19T10:48:53.989Z,23.50
2023-04-19T10:51:28.601Z,23.80
2023-04-19T10:54:03.428Z,22.60
2023-04-19T10:56:36.261Z,22.60
2023-04-19T10:59:08.030Z,23.50
2023-04-19T11:01:45.327Z,24.10
2023-04-19T11:04:15.220Z,23.80
2023-04-19T11:06:54.214Z,22.60
2023-04-19T11:09:39.095Z,24.40
2023-04-19T11:12:08.730Z,25.80
2023-04-19T11:14:39.261Z,26.30
2023-04-19T11:17:31.405Z,23.80
2023-04-19T11:20:07.277Z,23.40
2023-04-19T11:22:43.006Z,24.30
2023-04-19T11:25:21.928Z,25.30
2023-04-19T11:27:53.598Z,24.00
2023-04-19T11:30:22.869Z,24.80
2023-04-19T11:32:55.372Z,24.70
2023-04-19T11:35:27.323Z,25.10
2023-04-19T11:37:56.522Z,23.30
2023-04-19T11:40:28.280Z,24.50
2023-04-19T11:43:00.883Z,22.70
2023-04-19T11:45:40.463Z,23.30
2023-04-19T11:48:17.981Z,24.30
2023-04-19T11:50:46.948Z,22.10
2023-04-19T11:53:22.572Z,21.00
2023-04-19T11:55:54.684Z,23.30
2023-04-19T11:58:33.819Z,23.90
2023-04-19T12:01:12.672Z,20.20
2023-04-19T12:03:52.300Z,19.30
2023-04-19T12:06:31.890Z,18.90
2023-04-19T12:08:59.563Z,20.50
2023-04-19T12:11:45.700Z,22.10
2023-04-19T12:14:15.318Z,24.20
2023-04-19T12:16:45.000Z,26.30
2023-04-19T12:19:26.181Z,24.90
2023-04-19T12:21:53.254Z,24.60
2023-04-19T12:24:20.497Z,24.70
2023-04-19T12:26:56.434Z,24.30
2023-04-19T12:29:24.074Z,24.80
2023-04-19T12:31:51.775Z,24.20
2023-04-19T12:34:19.307Z,23.90
2023-04-19T12:36:46.385Z,24.70
2023-04-19T12:39:13.734Z,24.30
2023-04-19T12:41:41.097Z,23.10
2023-04-19T12:44:08.196Z,20.60
2023-04-19T12:46:35.397Z,19.60
2023-04-19T12:49:02.615Z,19.40
2023-04-19T12:51:30.667Z,19.00
2023-04-19T12:53:57.823Z,19.40
2023-04-19T12:56:24.887Z,19.50
2023-04-19T12:58:53.069Z,24.10
2023-04-19T13:01:20.577Z,25.30
2023-04-19T13:03:47.931Z,23.70
2023-04-19T13:06:16.996Z,23.30
2023-04-19T13:08:46.549Z,22.40
2023-04-19T13:11:16.062Z,22.60
2023-04-19T13:13:43.325Z,21.60
2023-04-19T13:16:11.185Z,21.20
2023-04-19T13:18:38.520Z,22.80
2023-04-19T13:21:08.067Z,22.80
2023-04-19T13:23:38.850Z,22.30
2023-04-19T13:26:06.711Z,22.10
2023-04-19T13:28:36.018Z,21.40
2023-04-19T13:31:04.650Z,20.00
2023-04-19T13:33:31.852Z,22.00
2023-04-19T13:35:59.010Z,22.50
2023-04-19T13:38:26.206Z,21.50
2023-04-19T13:41:11.829Z,22.20
2023-04-19T13:43:39.252Z,22.00
2023-04-19T13:46:43.477Z,20.40
2023-04-19T13:49:10.660Z,20.50
2023-04-19T13:51:49.082Z,22.20
2023-04-19T13:54:20.401Z,23.60
2023-04-19T13:56:50.536Z,20.80
2023-04-19T13:59:19.162Z,19.30
2023-04-19T14:02:04.981Z,20.40
2023-04-19T14:04:32.985Z,20.70
2023-04-19T14:07:18.980Z,21.80
2023-04-19T14:09:46.135Z,23.20
2023-04-19T14:12:13.216Z,22.60
2023-04-19T14:14:59.651Z,21.10
2023-04-19T14:17:26.863Z,20.60
2023-04-19T14:19:54.005Z,20.80
2023-04-19T14:22:21.134Z,19.60
2023-04-19T14:25:07.130Z,20.10
2023-04-19T14:27:34.457Z,19.80
2023-04-19T14:30:03.222Z,19.30
2023-04-19T14:32:32.768Z,19.00
2023-04-19T14:35:00.146Z,19.40
2023-04-19T14:37:27.721Z,19.00
2023-04-19T14:39:54.937Z,19.40
2023-04-19T14:42:59.343Z,19.20
2023-04-19T14:45:45.138Z,18.90
2023-04-19T14:48:31.056Z,18.60
2023-04-19T14:50:58.193Z,18.80
2023-04-19T14:53:25.442Z,18.50
2023-04-19T14:55:52.580Z,18.50
2023-04-19T14:58:19.645Z,18.40
2023-04-19T15:00:46.871Z,18.60
2023-04-19T15:03:14.308Z,19.00
2023-04-19T15:05:41.656Z,18.60
2023-04-19T15:08:30.711Z,18.50
2023-04-19T15:10:58.810Z,18.40
2023-04-19T15:13:45.257Z,18.20
2023-04-19T15:16:31.088Z,17.90
2023-04-19T15:18:58.371Z,17.80
2023-04-19T15:21:25.784Z,17.70
2023-04-19T15:24:30.771Z,17.70
2023-04-19T15:26:58.897Z,17.70
2023-04-19T15:29:26.433Z,17.70
2023-04-19T15:31:53.850Z,17.40
2023-04-19T15:34:21.059Z,17.60
2023-04-19T15:36:48.215Z,17.60
2023-04-19T15:39:15.578Z,17.40
2023-04-19T15:42:01.459Z,17.00
2023-04-19T15:44:28.656Z,16.90
2023-04-19T15:47:14.284Z,16.90
2023-04-19T15:49:41.619Z,16.80
2023-04-19T15:52:09.343Z,16.80
2023-04-19T15:54:37.816Z,16.80
2023-04-19T15:57:42.645Z,16.80
2023-04-19T16:00:10.304Z,16.70
2023-04-19T16:02:37.640Z,16.80
2023-04-19T16:05:05.547Z,16.70
2023-04-19T16:07:33.271Z,16.70
2023-04-19T16:10:18.892Z,16.90
2023-04-19T16:12:46.940Z,16.70
2023-04-19T16:15:14.252Z,16.60
2023-04-19T16:17:41.479Z,16.60
2023-04-19T16:20:09.406Z,16.60
2023-04-19T16:22:55.148Z,16.60
2023-04-19T16:25:43.685Z,16.40
2023-04-19T16:28:11.068Z,16.40
2023-04-19T16:30:56.875Z,16.40
2023-04-19T16:33:24.043Z,16.30
2023-04-19T16:35:51.341Z,16.10
2023-04-19T16:38:18.489Z,16.20
2023-04-19T16:41:05.930Z,16.20
2023-04-19T16:43:52.697Z,16.10
2023-04-19T16:46:21.165Z,16.10
2023-04-19T16:49:07.255Z,16.00
2023-04-19T16:51:34.617Z,16.00
2023-04-19T16:54:01.697Z,15.90
2023-04-19T16:56:48.304Z,15.80
2023-04-19T16:59:15.695Z,16.10
2023-04-19T17:01:44.439Z,15.90
2023-04-19T17:04:11.938Z,15.70
2023-04-19T17:06:39.150Z,15.70
2023-04-19T17:09:07.802Z,15.60
2023-04-19T17:11:34.973Z,15.70
2023-04-19T17:14:39.489Z,15.70
2023-04-19T17:17:25.228Z,15.60
2023-04-19T17:19:55.313Z,15.40
2023-04-19T17:22:23.679Z,15.60
2023-04-19T17:24:50.838Z,15.70
2023-04-19T17:27:17.988Z,15.60
2023-04-19T17:29:45.068Z,15.50
2023-04-19T17:32:12.257Z,15.50
2023-04-19T17:34:39.422Z,15.50
2023-04-19T17:37:06.527Z,15.60
2023-04-19T17:39:33.642Z,15.30
2023-04-19T17:42:01.824Z,15.20
2023-04-19T17:44:28.976Z,15.40
2023-04-19T17:46:56.232Z,15.20
2023-04-19T17:49:23.323Z,15.30
2023-04-19T17:51:50.541Z,15.10
2023-04-19T17:54:36.525Z,15.10
2023-04-19T17:57:05.152Z,15.00
2023-04-19T17:59:32.203Z,14.90
2023-04-19T18:02:18.063Z,15.10
2023-04-19T18:04:45.694Z,15.10
2023-04-19T18:07:12.959Z,15.00
2023-04-19T18:09:58.654Z,14.90
2023-04-19T18:12:25.751Z,14.90
2023-04-19T18:14:52.992Z,14.90
2023-04-19T18:17:20.190Z,14.70
2023-04-19T18:20:05.589Z,14.60
2023-04-19T18:22:33.869Z,14.80
2023-04-19T18:25:01.062Z,14.70
2023-04-19T18:27:30.327Z,14.70
2023-04-19T18:29:59.246Z,14.50
2023-04-19T18:32:28.815Z,14.50
2023-04-19T18:34:56.299Z,14.50
2023-04-19T18:37:23.424Z,14.60
2023-04-19T18:39:50.534Z,14.60
2023-04-19T18:42:17.854Z,14.40
2023-04-19T18:44:53.592Z,14.40
2023-04-19T18:47:21.340Z,14.30
2023-04-19T18:50:08.786Z,14.30
2023-04-19T18:52:55.321Z,14.20
2023-04-19T18:55:41.177Z,14.30
2023-04-19T18:58:09.188Z,14.50
2023-04-19T19:00:36.244Z,14.30
2023-04-19T19:03:04.032Z,14.00
2023-04-19T19:05:31.515Z,14.10
2023-04-19T19:07:59.181Z,14.20
2023-04-19T19:10:57.139Z,14.20
2023-04-19T19:13:13.781Z,13.90
2023-04-19T19:15:41.730Z,13.80
2023-04-19T19:18:29.606Z,13.90
2023-04-19T19:21:03.322Z,14.00
2023-04-19T19:26:19.760Z,14.30
2023-04-19T19:28:47.345Z,13.90
2023-04-19T19:31:14.649Z,13.90
2023-04-19T19:33:41.941Z,13.90
2023-04-19T19:36:09.624Z,14.00
2023-04-19T19:38:37.188Z,14.20
2023-04-19T19:41:51.543Z,13.90
2023-04-19T19:44:13.569Z,13.70
2023-04-19T19:46:40.821Z,13.50
2023-04-19T19:49:12.670Z,13.40
2023-04-19T19:51:59.650Z,13.40
2023-04-19T19:54:27.440Z,13.30
2023-04-19T19:58:08.034Z,13.20
2023-04-19T20:00:18.006Z,13.20
2023-04-19T20:03:07.067Z,12.90
2023-04-19T20:05:34.792Z,13.20
2023-04-19T20:08:08.782Z,13.20
2023-04-19T20:10:38.320Z,13.20
2023-04-19T20:13:08.247Z,12.90
2023-04-19T20:15:36.859Z,12.80
2023-04-19T20:18:05.335Z,12.70
2023-04-19T20:20:32.654Z,12.70
2023-04-19T20:22:59.900Z,12.70
2023-04-19T20:25:27.160Z,12.70
2023-04-19T20:28:12.768Z,12.60
2023-04-19T20:30:39.952Z,12.60
2023-04-19T20:33:07.245Z,12.60
2023-04-19T20:35:37.266Z,12.50
2023-04-19T20:38:04.320Z,12.60
2023-04-19T20:40:32.423Z,12.60
2023-04-19T20:42:59.612Z,12.70
2023-04-19T20:45:27.729Z,12.60
2023-04-19T20:47:56.291Z,12.50
2023-04-19T20:50:23.536Z,12.50
2023-04-19T20:52:50.700Z,12.50
2023-04-19T20:55:17.930Z,12.50
2023-04-19T20:57:45.118Z,12.50
2023-04-19T21:00:30.895Z,12.40
2023-04-19T21:02:58.200Z,12.50
2023-04-19T21:05:25.560Z,12.50
2023-04-19T21:07:52.679Z,12.40
2023-04-19T21:10:22.060Z,12.30
2023-04-19T21:13:07.955Z,12.20
2023-04-19T21:18:17.938Z,12.20
2023-04-19T21:20:45.362Z,12.10
2023-04-19T21:23:12.537Z,12.20
2023-04-19T21:25:39.678Z,12.20
2023-04-19T21:28:06.789Z,12.20
2023-04-19T21:30:34.198Z,12.30
2023-04-19T21:33:01.558Z,12.30
2023-04-19T21:35:28.787Z,12.20
2023-04-19T21:37:56.075Z,12.00
2023-04-19T21:40:23.425Z,11.90
2023-04-19T21:42:50.527Z,11.90
2023-04-19T21:45:17.612Z,11.70
2023-04-19T21:47:44.834Z,11.70
2023-04-19T21:50:12.060Z,11.90
2023-04-19T21:52:39.270Z,11.90
2023-04-19T21:55:07.057Z,11.70
2023-04-19T21:57:34.395Z,11.70
2023-04-19T22:00:01.529Z,11.70
2023-04-19T22:02:32.591Z,11.60
2023-04-19T22:05:00.500Z,11.60
2023-04-19T22:07:30.411Z,11.50
2023-04-19T22:09:58.459Z,11.60
2023-04-19T22:12:25.692Z,11.50
2023-04-19T22:14:53.016Z,11.60
2023-04-19T22:17:20.872Z,11.70
2023-04-19T22:19:48.658Z,11.70
2023-04-19T22:22:15.837Z,11.70
2023-04-19T22:24:56.092Z,11.80
2023-04-19T22:27:25.010Z,11.80
2023-04-19T22:29:52.116Z,11.70
2023-04-19T22:32:19.493Z,11.60
2023-04-19T22:34:46.818Z,11.50
2023-04-19T22:37:13.919Z,11.50
2023-04-19T22:39:41.164Z,11.40
2023-04-19T22:42:08.303Z,11.50
2023-04-19T22:44:35.404Z,11.30
2023-04-19T22:47:03.391Z,11.10
2023-04-19T22:49:30.582Z,11.30
2023-04-19T22:51:58.562Z,11.60
2023-04-19T22:54:25.960Z,11.40
2023-04-19T22:56:53.193Z,11.60
2023-04-19T22:59:20.288Z,11.70
2023-04-19T23:01:47.382Z,11.60
2023-04-19T23:04:15.125Z,11.20
2023-04-19T23:06:44.253Z,11.40
2023-04-19T23:09:13.848Z,11.50
2023-04-19T23:11:41.540Z,11.70
2023-04-19T23:14:11.455Z,11.60
2023-04-19T23:16:38.861Z,11.30
2023-04-19T23:19:07.671Z,11.50
2023-04-19T23:21:35.008Z,11.30
2023-04-19T23:24:02.209Z,11.50
2023-04-19T23:26:30.212Z,11.70
2023-04-19T23:28:57.300Z,11.80
2023-04-19T23:31:24.601Z,11.70
2023-04-19T23:33:51.894Z,11.60
2023-04-19T23:36:18.935Z,11.80
2023-04-19T23:38:45.952Z,11.50
2023-04-19T23:41:13.183Z,11.40
2023-04-19T23:43:40.538Z,11.40
2023-04-19T23:46:07.765Z,11.50
2023-04-19T23:48:35.177Z,11.70
2023-04-19T23:51:02.231Z,11.60
2023-04-19T23:53:29.466Z,11.60
2023-04-19T23:55:56.530Z,11.60
2023-04-19T23:58:23.616Z,11.30
